sensor_id;sensor_type;location;lat;lon;timestamp;temperature;humidity
47779;DHT22;33538;48.432;11.350;2022-08-19T00:00:58;22.90;89.40
47779;DHT22;33538;48.432;11.350;2022-08-19T00:03:24;22.90;89.90
47779;DHT22;33538;48.432;11.350;2022-08-19T00:05:51;22.90;88.60
47779;DHT22;33538;48.432;11.350;2022-08-19T00:08:18;22.90;89.20
47779;DHT22;33538;48.432;11.350;2022-08-19T00:10:45;22.90;89.30
47779;DHT22;33538;48.432;11.350;2022-08-19T00:13:11;22.90;90.10
47779;DHT22;33538;48.432;11.350;2022-08-19T00:15:38;22.90;89.20
47779;DHT22;33538;48.432;11.350;2022-08-19T00:18:06;22.90;90.10
47779;DHT22;33538;48.432;11.350;2022-08-19T00:20:33;22.90;89.40
47779;DHT22;33538;48.432;11.350;2022-08-19T00:23:00;22.80;90.00
47779;DHT22;33538;48.432;11.350;2022-08-19T00:25:27;22.80;90.20
47779;DHT22;33538;48.432;11.350;2022-08-19T00:27:56;22.80;91.20
47779;DHT22;33538;48.432;11.350;2022-08-19T00:30:23;22.80;90.90
47779;DHT22;33538;48.432;11.350;2022-08-19T00:32:50;22.80;90.80
47779;DHT22;33538;48.432;11.350;2022-08-19T00:35:19;22.90;91.00
47779;DHT22;33538;48.432;11.350;2022-08-19T00:37:47;22.90;90.80
47779;DHT22;33538;48.432;11.350;2022-08-19T00:40:14;22.90;91.00
47779;DHT22;33538;48.432;11.350;2022-08-19T00:42:41;22.90;90.50
47779;DHT22;33538;48.432;11.350;2022-08-19T00:45:11;22.80;90.80
47779;DHT22;33538;48.432;11.350;2022-08-19T00:47:38;22.80;90.60
47779;DHT22;33538;48.432;11.350;2022-08-19T00:50:06;22.80;90.90
47779;DHT22;33538;48.432;11.350;2022-08-19T00:52:37;22.80;90.70
47779;DHT22;33538;48.432;11.350;2022-08-19T00:55:07;22.80;90.80
47779;DHT22;33538;48.432;11.350;2022-08-19T00:57:37;22.80;91.00
47779;DHT22;33538;48.432;11.350;2022-08-19T01:00:07;22.80;91.20
47779;DHT22;33538;48.432;11.350;2022-08-19T01:02:35;22.80;91.30
47779;DHT22;33538;48.432;11.350;2022-08-19T01:05:05;22.70;91.50
47779;DHT22;33538;48.432;11.350;2022-08-19T01:07:34;22.70;91.40
47779;DHT22;33538;48.432;11.350;2022-08-19T01:10:06;22.70;91.50
47779;DHT22;33538;48.432;11.350;2022-08-19T01:12:34;22.70;91.40
47779;DHT22;33538;48.432;11.350;2022-08-19T01:15:02;22.70;91.50
47779;DHT22;33538;48.432;11.350;2022-08-19T01:17:29;22.70;91.40
47779;DHT22;33538;48.432;11.350;2022-08-19T01:19:56;22.70;91.50
47779;DHT22;33538;48.432;11.350;2022-08-19T01:22:29;22.70;91.60
47779;DHT22;33538;48.432;11.350;2022-08-19T01:24:59;22.70;91.20
47779;DHT22;33538;48.432;11.350;2022-08-19T01:27:27;22.70;91.40
47779;DHT22;33538;48.432;11.350;2022-08-19T01:30:10;22.70;91.70
47779;DHT22;33538;48.432;11.350;2022-08-19T01:32:37;22.70;91.50
47779;DHT22;33538;48.432;11.350;2022-08-19T01:35:04;22.70;91.40
47779;DHT22;33538;48.432;11.350;2022-08-19T01:37:46;22.70;91.30
47779;DHT22;33538;48.432;11.350;2022-08-19T01:40:15;22.70;91.60
47779;DHT22;33538;48.432;11.350;2022-08-19T01:42:41;22.70;91.70
47779;DHT22;33538;48.432;11.350;2022-08-19T01:45:09;22.70;91.50
47779;DHT22;33538;48.432;11.350;2022-08-19T01:47:36;22.70;91.60
47779;DHT22;33538;48.432;11.350;2022-08-19T01:50:05;22.70;91.50
47779;DHT22;33538;48.432;11.350;2022-08-19T01:52:32;22.60;91.60
47779;DHT22;33538;48.432;11.350;2022-08-19T01:55:02;22.60;91.10
47779;DHT22;33538;48.432;11.350;2022-08-19T01:57:30;22.60;91.90
47779;DHT22;33538;48.432;11.350;2022-08-19T01:59:57;22.70;91.40
47779;DHT22;33538;48.432;11.350;2022-08-19T02:02:23;22.60;91.50
47779;DHT22;33538;48.432;11.350;2022-08-19T02:04:50;22.60;91.50
47779;DHT22;33538;48.432;11.350;2022-08-19T02:07:19;22.60;91.20
47779;DHT22;33538;48.432;11.350;2022-08-19T02:09:45;22.60;91.80
47779;DHT22;33538;48.432;11.350;2022-08-19T02:12:14;22.60;92.00
47779;DHT22;33538;48.432;11.350;2022-08-19T02:14:42;22.60;91.90
47779;DHT22;33538;48.432;11.350;2022-08-19T02:17:09;22.60;91.90
47779;DHT22;33538;48.432;11.350;2022-08-19T02:19:35;22.60;92.10
47779;DHT22;33538;48.432;11.350;2022-08-19T02:22:06;22.60;91.80
47779;DHT22;33538;48.432;11.350;2022-08-19T02:24:33;22.60;92.00
47779;DHT22;33538;48.432;11.350;2022-08-19T02:27:00;22.50;92.30
47779;DHT22;33538;48.432;11.350;2022-08-19T02:29:28;22.50;92.10
47779;DHT22;33538;48.432;11.350;2022-08-19T02:31:55;22.50;91.70
47779;DHT22;33538;48.432;11.350;2022-08-19T02:34:21;22.50;92.10
47779;DHT22;33538;48.432;11.350;2022-08-19T02:36:48;22.50;92.10
47779;DHT22;33538;48.432;11.350;2022-08-19T02:39:18;22.50;92.20
47779;DHT22;33538;48.432;11.350;2022-08-19T02:41:45;22.50;91.90
47779;DHT22;33538;48.432;11.350;2022-08-19T02:44:11;22.50;92.20
47779;DHT22;33538;48.432;11.350;2022-08-19T02:46:57;22.50;92.90
47779;DHT22;33538;48.432;11.350;2022-08-19T02:49:24;22.50;92.70
47779;DHT22;33538;48.432;11.350;2022-08-19T02:51:51;22.50;92.70
47779;DHT22;33538;48.432;11.350;2022-08-19T02:54:18;22.50;92.60
47779;DHT22;33538;48.432;11.350;2022-08-19T02:56:45;22.50;92.60
47779;DHT22;33538;48.432;11.350;2022-08-19T02:59:11;22.50;92.20
47779;DHT22;33538;48.432;11.350;2022-08-19T03:01:40;22.50;92.50
47779;DHT22;33538;48.432;11.350;2022-08-19T03:04:12;22.50;92.60
47779;DHT22;33538;48.432;11.350;2022-08-19T03:06:41;22.50;92.30
47779;DHT22;33538;48.432;11.350;2022-08-19T03:09:09;22.50;92.40
47779;DHT22;33538;48.432;11.350;2022-08-19T03:11:37;22.50;92.20
47779;DHT22;33538;48.432;11.350;2022-08-19T03:14:05;22.50;91.90
47779;DHT22;33538;48.432;11.350;2022-08-19T03:16:40;22.40;91.90
47779;DHT22;33538;48.432;11.350;2022-08-19T03:19:09;22.40;92.30
47779;DHT22;33538;48.432;11.350;2022-08-19T03:21:36;22.40;91.80
47779;DHT22;33538;48.432;11.350;2022-08-19T03:24:05;22.40;92.40
47779;DHT22;33538;48.432;11.350;2022-08-19T03:26:32;22.40;92.60
47779;DHT22;33538;48.432;11.350;2022-08-19T03:29:02;22.50;92.60
47779;DHT22;33538;48.432;11.350;2022-08-19T03:31:31;22.40;92.40
47779;DHT22;33538;48.432;11.350;2022-08-19T03:34:14;22.40;92.60
47779;DHT22;33538;48.432;11.350;2022-08-19T03:36:41;22.40;92.50
47779;DHT22;33538;48.432;11.350;2022-08-19T03:39:09;22.40;92.80
47779;DHT22;33538;48.432;11.350;2022-08-19T03:41:39;22.40;92.80
47779;DHT22;33538;48.432;11.350;2022-08-19T03:44:12;22.30;92.90
47779;DHT22;33538;48.432;11.350;2022-08-19T03:46:44;22.30;93.00
47779;DHT22;33538;48.432;11.350;2022-08-19T03:49:13;22.30;92.90
47779;DHT22;33538;48.432;11.350;2022-08-19T03:51:41;22.40;92.00
47779;DHT22;33538;48.432;11.350;2022-08-19T03:54:11;22.30;92.10
47779;DHT22;33538;48.432;11.350;2022-08-19T03:56:41;22.30;92.60
47779;DHT22;33538;48.432;11.350;2022-08-19T03:59:10;22.30;92.70
47779;DHT22;33538;48.432;11.350;2022-08-19T04:01:37;22.40;92.70
47779;DHT22;33538;48.432;11.350;2022-08-19T04:04:04;22.30;92.70
47779;DHT22;33538;48.432;11.350;2022-08-19T04:06:35;22.30;93.30
47779;DHT22;33538;48.432;11.350;2022-08-19T04:09:05;22.30;92.10
47779;DHT22;33538;48.432;11.350;2022-08-19T04:11:35;22.30;92.90
47779;DHT22;33538;48.432;11.350;2022-08-19T04:14:11;22.30;92.80
47779;DHT22;33538;48.432;11.350;2022-08-19T04:16:38;22.20;92.80
47779;DHT22;33538;48.432;11.350;2022-08-19T04:19:06;22.20;92.00
47779;DHT22;33538;48.432;11.350;2022-08-19T04:21:34;22.20;92.60
47779;DHT22;33538;48.432;11.350;2022-08-19T04:24:02;22.20;93.10
47779;DHT22;33538;48.432;11.350;2022-08-19T04:26:32;22.20;92.40
47779;DHT22;33538;48.432;11.350;2022-08-19T04:29:00;22.20;92.90
47779;DHT22;33538;48.432;11.350;2022-08-19T04:31:29;22.20;92.50
47779;DHT22;33538;48.432;11.350;2022-08-19T04:33:58;22.20;92.80
47779;DHT22;33538;48.432;11.350;2022-08-19T04:36:27;22.20;92.10
47779;DHT22;33538;48.432;11.350;2022-08-19T04:38:57;22.20;92.50
47779;DHT22;33538;48.432;11.350;2022-08-19T04:41:25;22.10;92.80
47779;DHT22;33538;48.432;11.350;2022-08-19T04:43:52;22.10;93.30
47779;DHT22;33538;48.432;11.350;2022-08-19T04:46:19;22.10;93.30
47779;DHT22;33538;48.432;11.350;2022-08-19T04:49:06;22.10;92.90
47779;DHT22;33538;48.432;11.350;2022-08-19T04:51:41;22.10;92.60
47779;DHT22;33538;48.432;11.350;2022-08-19T04:54:09;22.10;92.10
47779;DHT22;33538;48.432;11.350;2022-08-19T04:56:36;22.10;93.10
47779;DHT22;33538;48.432;11.350;2022-08-19T04:59:05;22.10;92.40
47779;DHT22;33538;48.432;11.350;2022-08-19T05:01:32;22.20;93.10
47779;DHT22;33538;48.432;11.350;2022-08-19T05:04:00;22.20;92.70
47779;DHT22;33538;48.432;11.350;2022-08-19T05:06:27;22.10;93.60
47779;DHT22;33538;48.432;11.350;2022-08-19T05:08:54;22.10;93.10
47779;DHT22;33538;48.432;11.350;2022-08-19T05:11:24;22.10;92.40
47779;DHT22;33538;48.432;11.350;2022-08-19T05:13:52;22.10;93.00
47779;DHT22;33538;48.432;11.350;2022-08-19T05:16:21;22.10;92.70
47779;DHT22;33538;48.432;11.350;2022-08-19T05:18:48;22.10;94.30
47779;DHT22;33538;48.432;11.350;2022-08-19T05:21:17;22.10;94.00
47779;DHT22;33538;48.432;11.350;2022-08-19T05:23:44;22.10;93.00
47779;DHT22;33538;48.432;11.350;2022-08-19T05:26:11;22.10;93.70
47779;DHT22;33538;48.432;11.350;2022-08-19T05:28:39;22.10;93.60
47779;DHT22;33538;48.432;11.350;2022-08-19T05:31:06;22.10;93.70
47779;DHT22;33538;48.432;11.350;2022-08-19T05:33:33;22.20;93.90
47779;DHT22;33538;48.432;11.350;2022-08-19T05:36:01;22.10;94.20
47779;DHT22;33538;48.432;11.350;2022-08-19T05:38:28;22.10;93.00
47779;DHT22;33538;48.432;11.350;2022-08-19T05:40:55;22.10;93.10
47779;DHT22;33538;48.432;11.350;2022-08-19T05:43:22;22.10;93.50
47779;DHT22;33538;48.432;11.350;2022-08-19T05:45:50;22.10;93.40
47779;DHT22;33538;48.432;11.350;2022-08-19T05:48:17;22.10;93.00
47779;DHT22;33538;48.432;11.350;2022-08-19T05:50:43;22.10;93.00
47779;DHT22;33538;48.432;11.350;2022-08-19T05:53:10;22.10;93.20
47779;DHT22;33538;48.432;11.350;2022-08-19T05:55:37;22.10;93.50
47779;DHT22;33538;48.432;11.350;2022-08-19T05:58:04;22.10;93.60
47779;DHT22;33538;48.432;11.350;2022-08-19T06:00:31;22.10;93.70
47779;DHT22;33538;48.432;11.350;2022-08-19T06:02:59;22.10;93.90
47779;DHT22;33538;48.432;11.350;2022-08-19T06:05:35;22.00;93.30
47779;DHT22;33538;48.432;11.350;2022-08-19T06:08:15;22.00;93.50
47779;DHT22;33538;48.432;11.350;2022-08-19T06:10:43;22.10;94.10
47779;DHT22;33538;48.432;11.350;2022-08-19T06:13:10;22.00;93.60
47779;DHT22;33538;48.432;11.350;2022-08-19T06:15:37;22.10;93.80
47779;DHT22;33538;48.432;11.350;2022-08-19T06:18:05;21.90;94.80
47779;DHT22;33538;48.432;11.350;2022-08-19T06:20:32;22.00;94.40
47779;DHT22;33538;48.432;11.350;2022-08-19T06:23:18;22.00;94.80
47779;DHT22;33538;48.432;11.350;2022-08-19T06:25:49;22.10;93.80
47779;DHT22;33538;48.432;11.350;2022-08-19T06:28:16;22.10;94.00
47779;DHT22;33538;48.432;11.350;2022-08-19T06:30:44;22.10;93.90
47779;DHT22;33538;48.432;11.350;2022-08-19T06:33:12;22.20;93.50
47779;DHT22;33538;48.432;11.350;2022-08-19T06:35:39;22.10;93.80
47779;DHT22;33538;48.432;11.350;2022-08-19T06:38:06;22.10;93.70
47779;DHT22;33538;48.432;11.350;2022-08-19T06:40:33;22.10;93.80
47779;DHT22;33538;48.432;11.350;2022-08-19T06:43:00;22.10;93.60
47779;DHT22;33538;48.432;11.350;2022-08-19T06:45:31;22.10;94.40
47779;DHT22;33538;48.432;11.350;2022-08-19T06:48:01;22.10;94.60
47779;DHT22;33538;48.432;11.350;2022-08-19T06:50:30;22.10;94.30
47779;DHT22;33538;48.432;11.350;2022-08-19T06:52:57;22.10;93.90
47779;DHT22;33538;48.432;11.350;2022-08-19T06:55:29;22.10;94.60
47779;DHT22;33538;48.432;11.350;2022-08-19T06:58:01;22.10;94.60
47779;DHT22;33538;48.432;11.350;2022-08-19T07:00:28;22.10;93.90
47779;DHT22;33538;48.432;11.350;2022-08-19T07:03:00;22.10;94.20
47779;DHT22;33538;48.432;11.350;2022-08-19T07:05:38;22.10;94.00
47779;DHT22;33538;48.432;11.350;2022-08-19T07:08:05;22.10;94.60
47779;DHT22;33538;48.432;11.350;2022-08-19T07:10:31;22.10;94.30
47779;DHT22;33538;48.432;11.350;2022-08-19T07:12:58;22.10;94.60
47779;DHT22;33538;48.432;11.350;2022-08-19T07:15:25;22.10;94.30
47779;DHT22;33538;48.432;11.350;2022-08-19T07:17:52;22.10;95.00
47779;DHT22;33538;48.432;11.350;2022-08-19T07:20:19;22.10;94.90
47779;DHT22;33538;48.432;11.350;2022-08-19T07:22:47;22.10;95.20
47779;DHT22;33538;48.432;11.350;2022-08-19T07:25:14;22.10;94.90
47779;DHT22;33538;48.432;11.350;2022-08-19T07:27:41;22.10;94.50
47779;DHT22;33538;48.432;11.350;2022-08-19T07:30:12;22.10;95.50
47779;DHT22;33538;48.432;11.350;2022-08-19T07:32:39;22.10;95.20
47779;DHT22;33538;48.432;11.350;2022-08-19T07:35:07;22.10;94.80
47779;DHT22;33538;48.432;11.350;2022-08-19T07:37:34;22.10;95.30
47779;DHT22;33538;48.432;11.350;2022-08-19T07:40:04;22.10;94.70
47779;DHT22;33538;48.432;11.350;2022-08-19T07:42:31;22.10;95.10
47779;DHT22;33538;48.432;11.350;2022-08-19T07:44:58;22.10;95.10
47779;DHT22;33538;48.432;11.350;2022-08-19T07:47:25;22.10;94.60
47779;DHT22;33538;48.432;11.350;2022-08-19T07:50:12;22.10;94.50
47779;DHT22;33538;48.432;11.350;2022-08-19T07:52:39;22.10;94.80
47779;DHT22;33538;48.432;11.350;2022-08-19T07:55:09;22.10;95.20
47779;DHT22;33538;48.432;11.350;2022-08-19T07:57:56;22.20;95.80
47779;DHT22;33538;48.432;11.350;2022-08-19T08:00:23;22.10;95.40
47779;DHT22;33538;48.432;11.350;2022-08-19T08:02:50;22.10;95.60
47779;DHT22;33538;48.432;11.350;2022-08-19T08:05:21;22.10;95.10
47779;DHT22;33538;48.432;11.350;2022-08-19T08:07:48;22.10;95.00
47779;DHT22;33538;48.432;11.350;2022-08-19T08:10:16;22.10;95.30
47779;DHT22;33538;48.432;11.350;2022-08-19T08:12:47;22.10;94.80
47779;DHT22;33538;48.432;11.350;2022-08-19T08:15:34;22.10;95.50
47779;DHT22;33538;48.432;11.350;2022-08-19T08:18:07;22.10;95.30
47779;DHT22;33538;48.432;11.350;2022-08-19T08:20:34;22.10;95.50
47779;DHT22;33538;48.432;11.350;2022-08-19T08:23:01;22.10;95.70
47779;DHT22;33538;48.432;11.350;2022-08-19T08:25:30;22.10;95.40
47779;DHT22;33538;48.432;11.350;2022-08-19T08:27:59;22.10;95.20
47779;DHT22;33538;48.432;11.350;2022-08-19T08:30:28;22.10;95.50
47779;DHT22;33538;48.432;11.350;2022-08-19T08:32:58;22.00;96.40
47779;DHT22;33538;48.432;11.350;2022-08-19T08:35:25;22.00;96.00
47779;DHT22;33538;48.432;11.350;2022-08-19T08:37:54;21.90;96.00
47779;DHT22;33538;48.432;11.350;2022-08-19T08:40:28;22.00;96.10
47779;DHT22;33538;48.432;11.350;2022-08-19T08:42:59;21.90;96.00
47779;DHT22;33538;48.432;11.350;2022-08-19T08:45:30;22.00;96.60
47779;DHT22;33538;48.432;11.350;2022-08-19T08:48:15;22.00;96.40
47779;DHT22;33538;48.432;11.350;2022-08-19T08:50:49;22.00;95.90
47779;DHT22;33538;48.432;11.350;2022-08-19T08:53:18;22.00;96.30
47779;DHT22;33538;48.432;11.350;2022-08-19T08:55:56;22.00;95.50
47779;DHT22;33538;48.432;11.350;2022-08-19T08:58:28;22.00;95.60
47779;DHT22;33538;48.432;11.350;2022-08-19T09:00:58;21.90;96.60
47779;DHT22;33538;48.432;11.350;2022-08-19T09:03:27;22.00;95.90
47779;DHT22;33538;48.432;11.350;2022-08-19T09:06:01;22.10;95.90
47779;DHT22;33538;48.432;11.350;2022-08-19T09:08:36;21.90;96.80
47779;DHT22;33538;48.432;11.350;2022-08-19T09:11:09;22.00;96.30
47779;DHT22;33538;48.432;11.350;2022-08-19T09:13:48;22.00;96.50
47779;DHT22;33538;48.432;11.350;2022-08-19T09:16:19;22.10;96.60
47779;DHT22;33538;48.432;11.350;2022-08-19T09:18:48;22.10;96.70
47779;DHT22;33538;48.432;11.350;2022-08-19T09:21:16;22.00;96.70
47779;DHT22;33538;48.432;11.350;2022-08-19T09:23:43;22.00;97.20
47779;DHT22;33538;48.432;11.350;2022-08-19T09:26:11;22.00;96.70
47779;DHT22;33538;48.432;11.350;2022-08-19T09:28:44;22.00;97.00
47779;DHT22;33538;48.432;11.350;2022-08-19T09:31:17;22.00;97.00
47779;DHT22;33538;48.432;11.350;2022-08-19T09:33:44;21.90;97.60
47779;DHT22;33538;48.432;11.350;2022-08-19T09:36:13;21.90;98.00
47779;DHT22;33538;48.432;11.350;2022-08-19T09:39:00;21.80;97.60
47779;DHT22;33538;48.432;11.350;2022-08-19T09:41:27;22.00;98.10
47779;DHT22;33538;48.432;11.350;2022-08-19T09:43:57;22.00;97.60
47779;DHT22;33538;48.432;11.350;2022-08-19T09:46:27;22.00;97.90
47779;DHT22;33538;48.432;11.350;2022-08-19T09:48:57;22.00;97.60
47779;DHT22;33538;48.432;11.350;2022-08-19T09:51:31;22.10;97.60
47779;DHT22;33538;48.432;11.350;2022-08-19T09:54:02;22.10;97.50
47779;DHT22;33538;48.432;11.350;2022-08-19T09:56:31;22.10;97.60
47779;DHT22;33538;48.432;11.350;2022-08-19T09:59:02;22.10;97.60
47779;DHT22;33538;48.432;11.350;2022-08-19T10:01:31;22.10;97.00
47779;DHT22;33538;48.432;11.350;2022-08-19T10:04:00;22.20;97.50
47779;DHT22;33538;48.432;11.350;2022-08-19T10:06:29;22.20;97.20
47779;DHT22;33538;48.432;11.350;2022-08-19T10:09:13;22.20;97.90
47779;DHT22;33538;48.432;11.350;2022-08-19T10:11:42;22.20;96.70
47779;DHT22;33538;48.432;11.350;2022-08-19T10:14:21;22.20;97.30
47779;DHT22;33538;48.432;11.350;2022-08-19T10:16:48;22.20;97.50
47779;DHT22;33538;48.432;11.350;2022-08-19T10:19:14;22.20;97.60
47779;DHT22;33538;48.432;11.350;2022-08-19T10:21:51;22.20;98.20
47779;DHT22;33538;48.432;11.350;2022-08-19T10:24:18;22.20;97.80
47779;DHT22;33538;48.432;11.350;2022-08-19T10:26:45;22.20;97.60
47779;DHT22;33538;48.432;11.350;2022-08-19T10:29:12;22.20;97.70
47779;DHT22;33538;48.432;11.350;2022-08-19T10:32:00;22.20;97.20
47779;DHT22;33538;48.432;11.350;2022-08-19T10:34:30;22.20;97.40
47779;DHT22;33538;48.432;11.350;2022-08-19T10:36:58;22.20;97.50
47779;DHT22;33538;48.432;11.350;2022-08-19T10:39:28;22.20;97.30
47779;DHT22;33538;48.432;11.350;2022-08-19T10:41:56;22.20;97.90
47779;DHT22;33538;48.432;11.350;2022-08-19T10:44:23;22.20;97.80
47779;DHT22;33538;48.432;11.350;2022-08-19T10:46:57;22.20;97.70
47779;DHT22;33538;48.432;11.350;2022-08-19T10:49:27;22.20;97.90
47779;DHT22;33538;48.432;11.350;2022-08-19T10:51:54;22.20;97.50
47779;DHT22;33538;48.432;11.350;2022-08-19T10:54:21;22.20;97.50
47779;DHT22;33538;48.432;11.350;2022-08-19T10:56:57;22.20;98.10
47779;DHT22;33538;48.432;11.350;2022-08-19T10:59:26;22.20;98.50
47779;DHT22;33538;48.432;11.350;2022-08-19T11:01:54;22.10;98.70
47779;DHT22;33538;48.432;11.350;2022-08-19T11:04:23;22.20;98.80
47779;DHT22;33538;48.432;11.350;2022-08-19T11:06:56;22.20;99.10
47779;DHT22;33538;48.432;11.350;2022-08-19T11:09:25;22.20;99.20
47779;DHT22;33538;48.432;11.350;2022-08-19T11:11:59;22.20;99.40
47779;DHT22;33538;48.432;11.350;2022-08-19T11:14:28;22.20;99.00
47779;DHT22;33538;48.432;11.350;2022-08-19T11:17:00;22.20;99.00
47779;DHT22;33538;48.432;11.350;2022-08-19T11:19:26;22.20;99.50
47779;DHT22;33538;48.432;11.350;2022-08-19T11:21:53;22.30;99.20
47779;DHT22;33538;48.432;11.350;2022-08-19T11:24:25;22.20;99.20
47779;DHT22;33538;48.432;11.350;2022-08-19T11:26:54;22.30;99.20
47779;DHT22;33538;48.432;11.350;2022-08-19T11:29:21;22.20;99.80
47779;DHT22;33538;48.432;11.350;2022-08-19T11:31:49;22.20;99.80
47779;DHT22;33538;48.432;11.350;2022-08-19T11:34:19;22.20;99.90
47779;DHT22;33538;48.432;11.350;2022-08-19T11:36:47;22.30;99.60
47779;DHT22;33538;48.432;11.350;2022-08-19T11:39:15;22.30;99.60
47779;DHT22;33538;48.432;11.350;2022-08-19T11:41:44;22.30;99.40
47779;DHT22;33538;48.432;11.350;2022-08-19T11:44:11;22.30;98.70
47779;DHT22;33538;48.432;11.350;2022-08-19T11:46:38;22.30;98.60
47779;DHT22;33538;48.432;11.350;2022-08-19T11:49:05;22.30;98.90
47779;DHT22;33538;48.432;11.350;2022-08-19T11:51:39;22.30;99.30
47779;DHT22;33538;48.432;11.350;2022-08-19T11:54:06;22.30;99.10
47779;DHT22;33538;48.432;11.350;2022-08-19T11:56:33;22.30;99.10
47779;DHT22;33538;48.432;11.350;2022-08-19T11:59:01;22.30;99.40
47779;DHT22;33538;48.432;11.350;2022-08-19T12:01:28;22.30;99.30
47779;DHT22;33538;48.432;11.350;2022-08-19T12:03:56;22.30;98.60
47779;DHT22;33538;48.432;11.350;2022-08-19T12:06:25;22.30;98.50
47779;DHT22;33538;48.432;11.350;2022-08-19T12:08:52;22.30;98.50
47779;DHT22;33538;48.432;11.350;2022-08-19T12:11:19;22.40;98.40
47779;DHT22;33538;48.432;11.350;2022-08-19T12:13:46;22.30;98.30
47779;DHT22;33538;48.432;11.350;2022-08-19T12:16:16;22.40;98.30
47779;DHT22;33538;48.432;11.350;2022-08-19T12:18:44;22.30;98.50
47779;DHT22;33538;48.432;11.350;2022-08-19T12:21:11;22.30;98.20
47779;DHT22;33538;48.432;11.350;2022-08-19T12:23:38;22.30;98.30
47779;DHT22;33538;48.432;11.350;2022-08-19T12:26:05;22.30;98.00
47779;DHT22;33538;48.432;11.350;2022-08-19T12:28:32;22.30;98.00
47779;DHT22;33538;48.432;11.350;2022-08-19T12:30:59;22.40;97.90
47779;DHT22;33538;48.432;11.350;2022-08-19T12:33:27;22.30;97.60
47779;DHT22;33538;48.432;11.350;2022-08-19T12:35:54;22.40;98.10
47779;DHT22;33538;48.432;11.350;2022-08-19T12:38:26;22.30;97.80
47779;DHT22;33538;48.432;11.350;2022-08-19T12:40:53;22.40;97.80
47779;DHT22;33538;48.432;11.350;2022-08-19T12:43:25;22.40;97.70
47779;DHT22;33538;48.432;11.350;2022-08-19T12:45:52;22.40;98.20
47779;DHT22;33538;48.432;11.350;2022-08-19T12:48:19;22.40;97.80
47779;DHT22;33538;48.432;11.350;2022-08-19T12:51:06;22.40;97.70
47779;DHT22;33538;48.432;11.350;2022-08-19T12:53:33;22.40;98.00
47779;DHT22;33538;48.432;11.350;2022-08-19T12:56:05;22.40;97.70
47779;DHT22;33538;48.432;11.350;2022-08-19T12:58:37;22.40;97.20
47779;DHT22;33538;48.432;11.350;2022-08-19T13:01:08;22.40;97.30
47779;DHT22;33538;48.432;11.350;2022-08-19T13:03:36;22.40;97.00
47779;DHT22;33538;48.432;11.350;2022-08-19T13:06:08;22.40;97.40
47779;DHT22;33538;48.432;11.350;2022-08-19T13:08:35;22.40;97.40
47779;DHT22;33538;48.432;11.350;2022-08-19T13:11:10;22.40;97.60
47779;DHT22;33538;48.432;11.350;2022-08-19T13:13:38;22.40;98.10
47779;DHT22;33538;48.432;11.350;2022-08-19T13:16:05;22.40;97.90
47779;DHT22;33538;48.432;11.350;2022-08-19T13:18:32;22.50;97.80
47779;DHT22;33538;48.432;11.350;2022-08-19T13:21:02;22.40;97.80
47779;DHT22;33538;48.432;11.350;2022-08-19T13:23:30;22.40;97.70
47779;DHT22;33538;48.432;11.350;2022-08-19T13:25:58;22.40;98.00
47779;DHT22;33538;48.432;11.350;2022-08-19T13:28:25;22.40;98.10
47779;DHT22;33538;48.432;11.350;2022-08-19T13:30:55;22.40;97.90
47779;DHT22;33538;48.432;11.350;2022-08-19T13:33:21;22.50;98.10
47779;DHT22;33538;48.432;11.350;2022-08-19T13:35:50;22.50;98.10
47779;DHT22;33538;48.432;11.350;2022-08-19T13:38:20;22.50;97.90
47779;DHT22;33538;48.432;11.350;2022-08-19T13:40:50;22.50;98.10
47779;DHT22;33538;48.432;11.350;2022-08-19T13:43:17;22.60;98.20
47779;DHT22;33538;48.432;11.350;2022-08-19T13:45:50;22.50;98.10
47779;DHT22;33538;48.432;11.350;2022-08-19T13:48:17;22.50;97.60
47779;DHT22;33538;48.432;11.350;2022-08-19T13:50:45;22.50;97.10
47779;DHT22;33538;48.432;11.350;2022-08-19T13:53:12;22.50;97.10
47779;DHT22;33538;48.432;11.350;2022-08-19T13:55:39;22.50;96.90
47779;DHT22;33538;48.432;11.350;2022-08-19T13:58:09;22.60;96.80
47779;DHT22;33538;48.432;11.350;2022-08-19T14:00:38;22.60;97.00
47779;DHT22;33538;48.432;11.350;2022-08-19T14:03:05;22.60;96.90
47779;DHT22;33538;48.432;11.350;2022-08-19T14:05:35;22.60;96.90
47779;DHT22;33538;48.432;11.350;2022-08-19T14:08:02;22.60;96.70
47779;DHT22;33538;48.432;11.350;2022-08-19T14:10:30;22.70;97.30
47779;DHT22;33538;48.432;11.350;2022-08-19T14:13:02;22.70;97.00
47779;DHT22;33538;48.432;11.350;2022-08-19T14:15:31;22.60;96.80
47779;DHT22;33538;48.432;11.350;2022-08-19T14:17:58;22.60;97.00
47779;DHT22;33538;48.432;11.350;2022-08-19T14:20:25;22.60;97.10
47779;DHT22;33538;48.432;11.350;2022-08-19T14:22:53;22.60;97.10
47779;DHT22;33538;48.432;11.350;2022-08-19T14:25:23;22.60;97.70
47779;DHT22;33538;48.432;11.350;2022-08-19T14:27:50;22.60;96.90
47779;DHT22;33538;48.432;11.350;2022-08-19T14:30:20;22.60;97.70
47779;DHT22;33538;48.432;11.350;2022-08-19T14:32:48;22.60;97.50
47779;DHT22;33538;48.432;11.350;2022-08-19T14:35:16;22.60;97.30
47779;DHT22;33538;48.432;11.350;2022-08-19T14:37:44;22.50;97.00
47779;DHT22;33538;48.432;11.350;2022-08-19T14:40:12;22.50;97.20
47779;DHT22;33538;48.432;11.350;2022-08-19T14:42:39;22.50;97.10
47779;DHT22;33538;48.432;11.350;2022-08-19T14:45:08;22.50;97.40
47779;DHT22;33538;48.432;11.350;2022-08-19T14:47:35;22.50;97.20
47779;DHT22;33538;48.432;11.350;2022-08-19T14:50:09;22.50;96.80
47779;DHT22;33538;48.432;11.350;2022-08-19T14:52:44;22.40;97.00
47779;DHT22;33538;48.432;11.350;2022-08-19T14:55:11;22.40;96.70
47779;DHT22;33538;48.432;11.350;2022-08-19T14:57:37;22.40;96.80
47779;DHT22;33538;48.432;11.350;2022-08-19T15:00:07;22.40;96.80
47779;DHT22;33538;48.432;11.350;2022-08-19T15:02:35;22.40;97.30
47779;DHT22;33538;48.432;11.350;2022-08-19T15:05:02;22.40;97.00
47779;DHT22;33538;48.432;11.350;2022-08-19T15:07:30;22.30;97.30
47779;DHT22;33538;48.432;11.350;2022-08-19T15:09:56;22.30;97.50
47779;DHT22;33538;48.432;11.350;2022-08-19T15:12:24;22.30;97.40
47779;DHT22;33538;48.432;11.350;2022-08-19T15:14:52;22.30;98.00
47779;DHT22;33538;48.432;11.350;2022-08-19T15:17:22;22.30;97.70
47779;DHT22;33538;48.432;11.350;2022-08-19T15:20:10;22.20;97.60
47779;DHT22;33538;48.432;11.350;2022-08-19T15:22:39;22.30;97.30
47779;DHT22;33538;48.432;11.350;2022-08-19T15:25:08;22.20;97.50
47779;DHT22;33538;48.432;11.350;2022-08-19T15:27:37;22.20;97.30